sensor_id;sensor_type;location;lat;lon;timestamp;temperature;humidity
5061;DHT22;2549;52.128;21.068;2022-08-07T00:00:24;19.90;99.90
5061;DHT22;2549;52.128;21.068;2022-08-07T00:02:51;19.90;99.90
5061;DHT22;2549;52.128;21.068;2022-08-07T00:05:19;19.90;99.90
5061;DHT22;2549;52.128;21.068;2022-08-07T00:07:49;19.80;99.90
5061;DHT22;2549;52.128;21.068;2022-08-07T00:10:28;19.80;99.90
5061;DHT22;2549;52.128;21.068;2022-08-07T00:12:59;19.80;99.90
5061;DHT22;2549;52.128;21.068;2022-08-07T00:15:30;19.80;99.90
5061;DHT22;2549;52.128;21.068;2022-08-07T00:18:04;19.70;99.90
5061;DHT22;2549;52.128;21.068;2022-08-07T00:20:32;19.70;99.90
5061;DHT22;2549;52.128;21.068;2022-08-07T00:23:01;19.60;99.90
5061;DHT22;2549;52.128;21.068;2022-08-07T00:25:34;19.60;99.90
5061;DHT22;2549;52.128;21.068;2022-08-07T00:28:07;19.60;99.90
5061;DHT22;2549;52.128;21.068;2022-08-07T00:30:36;19.70;99.90
5061;DHT22;2549;52.128;21.068;2022-08-07T00:33:03;19.70;99.90
5061;DHT22;2549;52.128;21.068;2022-08-07T00:35:33;19.70;99.90
5061;DHT22;2549;52.128;21.068;2022-08-07T00:38:03;19.50;99.90
5061;DHT22;2549;52.128;21.068;2022-08-07T00:40:30;19.50;99.90
5061;DHT22;2549;52.128;21.068;2022-08-07T00:43:07;19.50;99.90
5061;DHT22;2549;52.128;21.068;2022-08-07T00:45:40;19.50;99.90
5061;DHT22;2549;52.128;21.068;2022-08-07T00:48:12;19.50;99.90
5061;DHT22;2549;52.128;21.068;2022-08-07T00:50:39;19.50;99.90
5061;DHT22;2549;52.128;21.068;2022-08-07T00:53:18;19.50;99.90
5061;DHT22;2549;52.128;21.068;2022-08-07T00:55:47;19.50;99.90
5061;DHT22;2549;52.128;21.068;2022-08-07T00:58:30;19.40;99.90
5061;DHT22;2549;52.128;21.068;2022-08-07T01:00:58;19.40;99.90
5061;DHT22;2549;52.128;21.068;2022-08-07T01:03:25;19.30;99.90
5061;DHT22;2549;52.128;21.068;2022-08-07T01:06:13;19.30;99.90
5061;DHT22;2549;52.128;21.068;2022-08-07T01:08:42;19.30;99.90
5061;DHT22;2549;52.128;21.068;2022-08-07T01:11:21;19.30;99.90
5061;DHT22;2549;52.128;21.068;2022-08-07T01:14:08;19.30;99.90
5061;DHT22;2549;52.128;21.068;2022-08-07T01:16:35;19.30;99.90
5061;DHT22;2549;52.128;21.068;2022-08-07T01:19:04;19.20;99.90
5061;DHT22;2549;52.128;21.068;2022-08-07T01:21:47;19.20;99.90
5061;DHT22;2549;52.128;21.068;2022-08-07T01:24:15;19.10;99.90
5061;DHT22;2549;52.128;21.068;2022-08-07T01:26:49;19.10;99.90
5061;DHT22;2549;52.128;21.068;2022-08-07T01:29:19;19.10;99.90
5061;DHT22;2549;52.128;21.068;2022-08-07T01:31:49;19.00;99.90
5061;DHT22;2549;52.128;21.068;2022-08-07T01:34:17;19.00;99.90
5061;DHT22;2549;52.128;21.068;2022-08-07T01:36:48;19.00;99.90
5061;DHT22;2549;52.128;21.068;2022-08-07T01:39:27;19.00;99.90
5061;DHT22;2549;52.128;21.068;2022-08-07T01:42:13;19.00;99.90
5061;DHT22;2549;52.128;21.068;2022-08-07T01:45:02;19.00;99.90
5061;DHT22;2549;52.128;21.068;2022-08-07T01:47:29;19.00;99.90
5061;DHT22;2549;52.128;21.068;2022-08-07T01:50:17;19.00;99.90
5061;DHT22;2549;52.128;21.068;2022-08-07T01:52:56;19.00;99.90
5061;DHT22;2549;52.128;21.068;2022-08-07T01:55:36;19.00;99.90
5061;DHT22;2549;52.128;21.068;2022-08-07T01:58:08;19.00;99.90
5061;DHT22;2549;52.128;21.068;2022-08-07T02:01:00;19.00;99.90
5061;DHT22;2549;52.128;21.068;2022-08-07T02:03:53;19.00;99.90
5061;DHT22;2549;52.128;21.068;2022-08-07T02:06:23;18.90;99.90
5061;DHT22;2549;52.128;21.068;2022-08-07T02:09:02;18.90;99.90
5061;DHT22;2549;52.128;21.068;2022-08-07T02:11:32;18.90;99.90
5061;DHT22;2549;52.128;21.068;2022-08-07T02:14:21;18.90;99.90
5061;DHT22;2549;52.128;21.068;2022-08-07T02:17:07;18.90;99.90
5061;DHT22;2549;52.128;21.068;2022-08-07T02:19:39;18.80;99.90
5061;DHT22;2549;52.128;21.068;2022-08-07T02:22:29;18.80;99.90
5061;DHT22;2549;52.128;21.068;2022-08-07T02:24:57;18.80;99.90
5061;DHT22;2549;52.128;21.068;2022-08-07T02:27:27;18.70;99.90
5061;DHT22;2549;52.128;21.068;2022-08-07T02:30:02;18.70;99.90
5061;DHT22;2549;52.128;21.068;2022-08-07T02:32:35;18.70;99.90
5061;DHT22;2549;52.128;21.068;2022-08-07T02:35:24;18.70;99.90
5061;DHT22;2549;52.128;21.068;2022-08-07T02:38:13;18.60;99.90
5061;DHT22;2549;52.128;21.068;2022-08-07T02:40:41;18.60;99.90
5061;DHT22;2549;52.128;21.068;2022-08-07T02:43:13;18.60;99.90
5061;DHT22;2549;52.128;21.068;2022-08-07T02:45:41;18.60;99.90
5061;DHT22;2549;52.128;21.068;2022-08-07T02:48:27;18.50;99.90
5061;DHT22;2549;52.128;21.068;2022-08-07T02:50:54;18.50;99.90
5061;DHT22;2549;52.128;21.068;2022-08-07T02:53:31;18.50;99.90
5061;DHT22;2549;52.128;21.068;2022-08-07T02:56:06;18.50;99.90
5061;DHT22;2549;52.128;21.068;2022-08-07T02:58:49;18.40;99.90
5061;DHT22;2549;52.128;21.068;2022-08-07T03:01:22;18.40;99.90
5061;DHT22;2549;52.128;21.068;2022-08-07T03:04:03;18.40;99.90
5061;DHT22;2549;52.128;21.068;2022-08-07T03:06:39;18.40;99.90
5061;DHT22;2549;52.128;21.068;2022-08-07T03:09:10;18.30;99.90
5061;DHT22;2549;52.128;21.068;2022-08-07T03:11:37;18.30;99.90
5061;DHT22;2549;52.128;21.068;2022-08-07T03:14:18;18.20;99.90
5061;DHT22;2549;52.128;21.068;2022-08-07T03:16:48;18.10;99.90
5061;DHT22;2549;52.128;21.068;2022-08-07T03:19:18;18.10;99.90
5061;DHT22;2549;52.128;21.068;2022-08-07T03:21:46;18.00;99.90
5061;DHT22;2549;52.128;21.068;2022-08-07T03:24:16;18.00;99.90
5061;DHT22;2549;52.128;21.068;2022-08-07T03:26:53;18.00;99.90
5061;DHT22;2549;52.128;21.068;2022-08-07T03:29:27;17.90;99.90
5061;DHT22;2549;52.128;21.068;2022-08-07T03:32:00;17.90;99.90
5061;DHT22;2549;52.128;21.068;2022-08-07T03:34:30;17.90;99.90
5061;DHT22;2549;52.128;21.068;2022-08-07T03:37:06;17.90;99.90
5061;DHT22;2549;52.128;21.068;2022-08-07T03:39:38;17.90;99.90
5061;DHT22;2549;52.128;21.068;2022-08-07T03:42:25;18.00;99.90
5061;DHT22;2549;52.128;21.068;2022-08-07T03:44:53;17.90;99.90
5061;DHT22;2549;52.128;21.068;2022-08-07T03:47:25;17.90;99.90
5061;DHT22;2549;52.128;21.068;2022-08-07T03:49:57;17.90;99.90
5061;DHT22;2549;52.128;21.068;2022-08-07T03:52:27;17.90;99.90
5061;DHT22;2549;52.128;21.068;2022-08-07T03:54:57;17.90;99.90
5061;DHT22;2549;52.128;21.068;2022-08-07T03:57:34;17.90;99.90
5061;DHT22;2549;52.128;21.068;2022-08-07T04:00:22;17.90;99.90
5061;DHT22;2549;52.128;21.068;2022-08-07T04:02:57;17.90;99.90
5061;DHT22;2549;52.128;21.068;2022-08-07T04:05:24;18.00;99.90
5061;DHT22;2549;52.128;21.068;2022-08-07T04:08:05;18.00;99.90
5061;DHT22;2549;52.128;21.068;2022-08-07T04:10:37;18.00;99.90
5061;DHT22;2549;52.128;21.068;2022-08-07T04:13:11;18.00;99.90
5061;DHT22;2549;52.128;21.068;2022-08-07T04:15:42;18.00;99.90
5061;DHT22;2549;52.128;21.068;2022-08-07T04:18:12;18.10;99.90
5061;DHT22;2549;52.128;21.068;2022-08-07T04:21:00;18.10;99.90
5061;DHT22;2549;52.128;21.068;2022-08-07T04:23:28;18.10;99.90
5061;DHT22;2549;52.128;21.068;2022-08-07T04:26:15;18.10;99.90
5061;DHT22;2549;52.128;21.068;2022-08-07T04:28:47;18.10;99.90
5061;DHT22;2549;52.128;21.068;2022-08-07T04:31:16;18.20;99.90
5061;DHT22;2549;52.128;21.068;2022-08-07T04:34:03;18.20;99.90
5061;DHT22;2549;52.128;21.068;2022-08-07T04:36:42;18.20;99.90
5061;DHT22;2549;52.128;21.068;2022-08-07T04:39:11;18.30;99.90
5061;DHT22;2549;52.128;21.068;2022-08-07T04:41:38;18.30;99.90
5061;DHT22;2549;52.128;21.068;2022-08-07T04:44:08;18.30;99.90
5061;DHT22;2549;52.128;21.068;2022-08-07T04:47:08;18.30;99.90
5061;DHT22;2549;52.128;21.068;2022-08-07T04:50:07;18.30;99.90
5061;DHT22;2549;52.128;21.068;2022-08-07T05:01:31;18.40;99.90
5061;DHT22;2549;52.128;21.068;2022-08-07T05:06:45;18.60;99.90
5061;DHT22;2549;52.128;21.068;2022-08-07T05:09:29;18.60;99.90
5061;DHT22;2549;52.128;21.068;2022-08-07T05:12:15;18.70;99.90
5061;DHT22;2549;52.128;21.068;2022-08-07T05:14:57;18.70;99.90
5061;DHT22;2549;52.128;21.068;2022-08-07T05:17:31;18.70;99.90
5061;DHT22;2549;52.128;21.068;2022-08-07T05:20:21;18.80;99.90
5061;DHT22;2549;52.128;21.068;2022-08-07T05:22:55;18.80;99.90
5061;DHT22;2549;52.128;21.068;2022-08-07T05:25:23;18.80;99.90
5061;DHT22;2549;52.128;21.068;2022-08-07T05:28:12;18.90;99.90
5061;DHT22;2549;52.128;21.068;2022-08-07T05:30:50;18.90;99.60
5061;DHT22;2549;52.128;21.068;2022-08-07T05:33:18;19.00;99.10
5061;DHT22;2549;52.128;21.068;2022-08-07T05:35:50;19.00;99.40
5061;DHT22;2549;52.128;21.068;2022-08-07T05:38:21;19.00;99.10
5061;DHT22;2549;52.128;21.068;2022-08-07T05:41:09;19.00;99.20
5061;DHT22;2549;52.128;21.068;2022-08-07T05:43:47;19.00;98.80
5061;DHT22;2549;52.128;21.068;2022-08-07T05:46:36;19.10;98.90
5061;DHT22;2549;52.128;21.068;2022-08-07T05:49:08;19.10;99.30
5061;DHT22;2549;52.128;21.068;2022-08-07T05:51:41;19.10;98.70
5061;DHT22;2549;52.128;21.068;2022-08-07T05:54:13;19.10;98.50
5061;DHT22;2549;52.128;21.068;2022-08-07T05:57:02;19.10;99.40
5061;DHT22;2549;52.128;21.068;2022-08-07T05:59:31;19.10;98.20
5061;DHT22;2549;52.128;21.068;2022-08-07T06:02:22;19.20;98.60
5061;DHT22;2549;52.128;21.068;2022-08-07T06:04:58;19.20;97.50
5061;DHT22;2549;52.128;21.068;2022-08-07T06:07:30;19.20;97.50
5061;DHT22;2549;52.128;21.068;2022-08-07T06:10:17;19.20;98.00
5061;DHT22;2549;52.128;21.068;2022-08-07T06:12:46;19.20;97.30
5061;DHT22;2549;52.128;21.068;2022-08-07T06:15:14;19.30;97.70
5061;DHT22;2549;52.128;21.068;2022-08-07T06:17:46;19.30;97.60
5061;DHT22;2549;52.128;21.068;2022-08-07T06:20:24;19.30;97.70
5061;DHT22;2549;52.128;21.068;2022-08-07T06:23:11;19.30;96.80
5061;DHT22;2549;52.128;21.068;2022-08-07T06:25:58;19.20;96.90
5061;DHT22;2549;52.128;21.068;2022-08-07T06:28:26;19.30;97.70
5061;DHT22;2549;52.128;21.068;2022-08-07T06:30:55;19.30;97.40
5061;DHT22;2549;52.128;21.068;2022-08-07T06:33:24;19.40;96.80
5061;DHT22;2549;52.128;21.068;2022-08-07T06:35:51;19.40;96.40
5061;DHT22;2549;52.128;21.068;2022-08-07T06:38:40;19.30;96.40
5061;DHT22;2549;52.128;21.068;2022-08-07T06:41:44;19.30;97.20
5061;DHT22;2549;52.128;21.068;2022-08-07T06:44:29;19.40;97.60
5061;DHT22;2549;52.128;21.068;2022-08-07T06:47:05;19.30;96.10
5061;DHT22;2549;52.128;21.068;2022-08-07T06:49:43;19.40;97.10
5061;DHT22;2549;52.128;21.068;2022-08-07T06:52:18;19.50;96.80
5061;DHT22;2549;52.128;21.068;2022-08-07T06:55:04;19.50;96.40
5061;DHT22;2549;52.128;21.068;2022-08-07T06:57:54;19.50;96.20
5061;DHT22;2549;52.128;21.068;2022-08-07T07:00:23;19.50;96.50
5061;DHT22;2549;52.128;21.068;2022-08-07T07:02:53;19.50;96.10
5061;DHT22;2549;52.128;21.068;2022-08-07T07:05:27;19.50;95.00
5061;DHT22;2549;52.128;21.068;2022-08-07T07:08:14;19.50;95.90
5061;DHT22;2549;52.128;21.068;2022-08-07T07:10:51;19.50;94.90
5061;DHT22;2549;52.128;21.068;2022-08-07T07:16:21;19.60;94.90
5061;DHT22;2549;52.128;21.068;2022-08-07T07:19:00;19.50;94.60
5061;DHT22;2549;52.128;21.068;2022-08-07T07:21:45;19.60;95.00
5061;DHT22;2549;52.128;21.068;2022-08-07T07:24:32;19.60;96.00
5061;DHT22;2549;52.128;21.068;2022-08-07T07:27:02;19.60;96.90
5061;DHT22;2549;52.128;21.068;2022-08-07T07:29:33;19.70;96.50
5061;DHT22;2549;52.128;21.068;2022-08-07T07:32:22;19.70;95.50
5061;DHT22;2549;52.128;21.068;2022-08-07T07:34:54;19.70;95.00
5061;DHT22;2549;52.128;21.068;2022-08-07T07:37:25;19.70;95.10
5061;DHT22;2549;52.128;21.068;2022-08-07T07:40:16;19.80;95.70
5061;DHT22;2549;52.128;21.068;2022-08-07T07:42:47;19.80;95.80
5061;DHT22;2549;52.128;21.068;2022-08-07T07:45:22;19.80;94.80
5061;DHT22;2549;52.128;21.068;2022-08-07T07:48:14;19.80;93.70
5061;DHT22;2549;52.128;21.068;2022-08-07T07:51:03;19.80;93.20
5061;DHT22;2549;52.128;21.068;2022-08-07T07:53:36;19.80;93.50
5061;DHT22;2549;52.128;21.068;2022-08-07T07:56:19;19.90;94.80
5061;DHT22;2549;52.128;21.068;2022-08-07T07:58:58;19.90;95.10
5061;DHT22;2549;52.128;21.068;2022-08-07T08:01:29;19.90;95.20
5061;DHT22;2549;52.128;21.068;2022-08-07T08:04:18;19.90;93.10
5061;DHT22;2549;52.128;21.068;2022-08-07T08:06:53;19.90;93.50
5061;DHT22;2549;52.128;21.068;2022-08-07T08:09:24;20.00;96.40
5061;DHT22;2549;52.128;21.068;2022-08-07T08:11:56;20.10;93.90
5061;DHT22;2549;52.128;21.068;2022-08-07T08:14:34;20.10;92.90
5061;DHT22;2549;52.128;21.068;2022-08-07T08:17:06;20.10;91.60
5061;DHT22;2549;52.128;21.068;2022-08-07T08:20:03;20.10;91.60
5061;DHT22;2549;52.128;21.068;2022-08-07T08:22:50;20.10;92.20
5061;DHT22;2549;52.128;21.068;2022-08-07T08:25:41;20.20;92.60
5061;DHT22;2549;52.128;21.068;2022-08-07T08:28:42;20.20;92.60
5061;DHT22;2549;52.128;21.068;2022-08-07T08:31:15;20.30;91.90
5061;DHT22;2549;52.128;21.068;2022-08-07T08:34:04;20.30;92.40
5061;DHT22;2549;52.128;21.068;2022-08-07T08:36:34;20.30;92.00
5061;DHT22;2549;52.128;21.068;2022-08-07T08:39:04;20.30;91.90
5061;DHT22;2549;52.128;21.068;2022-08-07T08:41:44;20.40;92.80
5061;DHT22;2549;52.128;21.068;2022-08-07T08:47:25;20.50;92.20
5061;DHT22;2549;52.128;21.068;2022-08-07T08:52:44;20.40;88.00
5061;DHT22;2549;52.128;21.068;2022-08-07T08:55:55;20.50;89.00
5061;DHT22;2549;52.128;21.068;2022-08-07T09:02:05;20.50;88.50
5061;DHT22;2549;52.128;21.068;2022-08-07T09:04:59;20.60;90.50
5061;DHT22;2549;52.128;21.068;2022-08-07T09:10:28;20.50;87.00
5061;DHT22;2549;52.128;21.068;2022-08-07T09:13:08;20.60;85.30
5061;DHT22;2549;52.128;21.068;2022-08-07T09:16:03;20.60;85.40
5061;DHT22;2549;52.128;21.068;2022-08-07T09:19:11;20.60;91.90
5061;DHT22;2549;52.128;21.068;2022-08-07T09:22:27;20.60;93.90
5061;DHT22;2549;52.128;21.068;2022-08-07T09:25:44;20.50;87.60
5061;DHT22;2549;52.128;21.068;2022-08-07T09:28:38;20.50;88.40
5061;DHT22;2549;52.128;21.068;2022-08-07T09:32:00;20.60;86.00
5061;DHT22;2549;52.128;21.068;2022-08-07T09:35:27;20.70;88.40
5061;DHT22;2549;52.128;21.068;2022-08-07T09:43:52;20.80;88.20
5061;DHT22;2549;52.128;21.068;2022-08-07T09:49:58;20.80;88.20
5061;DHT22;2549;52.128;21.068;2022-08-07T09:52:52;20.90;87.10
5061;DHT22;2549;52.128;21.068;2022-08-07T09:58:56;20.90;83.20
5061;DHT22;2549;52.128;21.068;2022-08-07T10:02:02;20.90;80.20
5061;DHT22;2549;52.128;21.068;2022-08-07T10:05:00;21.00;81.70
5061;DHT22;2549;52.128;21.068;2022-08-07T10:11:07;21.00;84.70
5061;DHT22;2549;52.128;21.068;2022-08-07T10:14:13;21.00;81.60
5061;DHT22;2549;52.128;21.068;2022-08-07T10:17:11;21.00;78.90
5061;DHT22;2549;52.128;21.068;2022-08-07T10:45:20;21.30;82.30
5061;DHT22;2549;52.128;21.068;2022-08-07T10:48:35;21.30;78.50
5061;DHT22;2549;52.128;21.068;2022-08-07T10:51:37;21.40;77.30
5061;DHT22;2549;52.128;21.068;2022-08-07T10:54:34;21.40;84.80
5061;DHT22;2549;52.128;21.068;2022-08-07T10:57:23;21.40;83.40
5061;DHT22;2549;52.128;21.068;2022-08-07T11:05:53;21.40;82.70
5061;DHT22;2549;52.128;21.068;2022-08-07T11:11:08;21.60;81.30
5061;DHT22;2549;52.128;21.068;2022-08-07T11:16:35;21.70;79.30
5061;DHT22;2549;52.128;21.068;2022-08-07T11:27:19;21.80;82.40
5061;DHT22;2549;52.128;21.068;2022-08-07T11:30:12;21.80;82.40
5061;DHT22;2549;52.128;21.068;2022-08-07T11:33:00;21.70;79.20
5061;DHT22;2549;52.128;21.068;2022-08-07T11:36:12;21.60;80.60
5061;DHT22;2549;52.128;21.068;2022-08-07T11:45:07;21.90;83.20
5061;DHT22;2549;52.128;21.068;2022-08-07T11:47:56;22.00;83.50
5061;DHT22;2549;52.128;21.068;2022-08-07T11:51:07;22.00;77.40
5061;DHT22;2549;52.128;21.068;2022-08-07T12:00:39;22.00;82.30
5061;DHT22;2549;52.128;21.068;2022-08-07T12:06:53;22.10;79.30
5061;DHT22;2549;52.128;21.068;2022-08-07T12:09:57;22.20;79.90
5061;DHT22;2549;52.128;21.068;2022-08-07T12:15:06;22.20;76.80
5061;DHT22;2549;52.128;21.068;2022-08-07T12:18:04;22.20;79.60
5061;DHT22;2549;52.128;21.068;2022-08-07T12:20:42;22.20;83.50
5061;DHT22;2549;52.128;21.068;2022-08-07T12:24:24;22.20;81.30
5061;DHT22;2549;52.128;21.068;2022-08-07T12:26:42;22.20;79.20
5061;DHT22;2549;52.128;21.068;2022-08-07T12:29:45;22.30;75.70
5061;DHT22;2549;52.128;21.068;2022-08-07T12:34:53;22.30;77.20
5061;DHT22;2549;52.128;21.068;2022-08-07T12:37:24;22.30;74.10
5061;DHT22;2549;52.128;21.068;2022-08-07T12:39:56;22.30;72.90
5061;DHT22;2549;52.128;21.068;2022-08-07T12:42:26;22.40;72.70
5061;DHT22;2549;52.128;21.068;2022-08-07T12:45:03;22.40;72.70
5061;DHT22;2549;52.128;21.068;2022-08-07T12:47:54;22.30;71.90
5061;DHT22;2549;52.128;21.068;2022-08-07T12:51:27;22.30;76.10
5061;DHT22;2549;52.128;21.068;2022-08-07T12:53:34;22.30;73.90
5061;DHT22;2549;52.128;21.068;2022-08-07T12:59:00;22.40;77.40
5061;DHT22;2549;52.128;21.068;2022-08-07T13:13:56;22.50;72.60
5061;DHT22;2549;52.128;21.068;2022-08-07T13:17:19;22.60;72.20
5061;DHT22;2549;52.128;21.068;2022-08-07T13:19:51;22.60;75.20
5061;DHT22;2549;52.128;21.068;2022-08-07T13:22:35;22.70;79.10
5061;DHT22;2549;52.128;21.068;2022-08-07T13:25:12;22.70;80.90
5061;DHT22;2549;52.128;21.068;2022-08-07T13:28:04;22.70;74.20
5061;DHT22;2549;52.128;21.068;2022-08-07T13:30:43;22.70;75.40
5061;DHT22;2549;52.128;21.068;2022-08-07T13:33:36;22.70;73.20
5061;DHT22;2549;52.128;21.068;2022-08-07T13:36:38;22.80;76.50
5061;DHT22;2549;52.128;21.068;2022-08-07T13:39:33;22.80;74.90
5061;DHT22;2549;52.128;21.068;2022-08-07T13:42:23;22.90;74.50
5061;DHT22;2549;52.128;21.068;2022-08-07T13:44:54;22.90;72.40
5061;DHT22;2549;52.128;21.068;2022-08-07T13:47:41;22.90;73.70
5061;DHT22;2549;52.128;21.068;2022-08-07T13:50:31;23.00;73.60
5061;DHT22;2549;52.128;21.068;2022-08-07T13:53:21;23.00;76.50
5061;DHT22;2549;52.128;21.068;2022-08-07T13:55:50;23.10;75.60
5061;DHT22;2549;52.128;21.068;2022-08-07T13:58:24;23.10;74.30
5061;DHT22;2549;52.128;21.068;2022-08-07T14:01:23;23.10;77.60
5061;DHT22;2549;52.128;21.068;2022-08-07T14:03:53;23.10;73.80
5061;DHT22;2549;52.128;21.068;2022-08-07T14:06:36;23.20;73.80
5061;DHT22;2549;52.128;21.068;2022-08-07T14:09:06;23.20;74.70
5061;DHT22;2549;52.128;21.068;2022-08-07T14:11:45;23.30;75.70
5061;DHT22;2549;52.128;21.068;2022-08-07T14:14:40;23.30;76.00
5061;DHT22;2549;52.128;21.068;2022-08-07T14:17:11;23.40;76.70
5061;DHT22;2549;52.128;21.068;2022-08-07T14:20:18;23.40;73.80
5061;DHT22;2549;52.128;21.068;2022-08-07T14:23:13;23.40;73.50
5061;DHT22;2549;52.128;21.068;2022-08-07T14:26:00;23.50;74.00
5061;DHT22;2549;52.128;21.068;2022-08-07T14:28:32;23.50;73.70
5061;DHT22;2549;52.128;21.068;2022-08-07T14:31:23;23.50;73.20
5061;DHT22;2549;52.128;21.068;2022-08-07T14:34:11;23.60;73.60
5061;DHT22;2549;52.128;21.068;2022-08-07T14:36:47;23.50;72.60
5061;DHT22;2549;52.128;21.068;2022-08-07T14:39:22;23.60;75.50
5061;DHT22;2549;52.128;21.068;2022-08-07T14:42:11;23.70;75.30
5061;DHT22;2549;52.128;21.068;2022-08-07T14:44:53;23.60;71.60
5061;DHT22;2549;52.128;21.068;2022-08-07T14:47:26;23.60;73.90
5061;DHT22;2549;52.128;21.068;2022-08-07T14:50:05;23.60;74.50
5061;DHT22;2549;52.128;21.068;2022-08-07T14:52:37;23.60;72.60
5061;DHT22;2549;52.128;21.068;2022-08-07T14:55:05;23.60;73.10
5061;DHT22;2549;52.128;21.068;2022-08-07T14:57:35;23.60;73.40
5061;DHT22;2549;52.128;21.068;2022-08-07T15:00:27;23.60;72.60
5061;DHT22;2549;52.128;21.068;2022-08-07T15:03:01;23.60;72.40
5061;DHT22;2549;52.128;21.068;2022-08-07T15:05:50;23.50;72.90
5061;DHT22;2549;52.128;21.068;2022-08-07T15:08:42;23.40;74.50
5061;DHT22;2549;52.128;21.068;2022-08-07T15:11:23;23.40;72.50
5061;DHT22;2549;52.128;21.068;2022-08-07T15:14:15;23.40;74.70
5061;DHT22;2549;52.128;21.068;2022-08-07T15:16:47;23.40;73.60
5061;DHT22;2549;52.128;21.068;2022-08-07T15:19:26;23.40;75.50
5061;DHT22;2549;52.128;21.068;2022-08-07T15:22:13;23.40;73.30
5061;DHT22;2549;52.128;21.068;2022-08-07T15:25:03;23.40;75.00
5061;DHT22;2549;52.128;21.068;2022-08-07T15:27:59;23.30;73.40
5061;DHT22;2549;52.128;21.068;2022-08-07T15:30:48;23.30;74.60
5061;DHT22;2549;52.128;21.068;2022-08-07T15:33:32;23.30;74.70
5061;DHT22;2549;52.128;21.068;2022-08-07T15:36:04;23.30;74.80
5061;DHT22;2549;52.128;21.068;2022-08-07T15:38:35;23.30;76.80
5061;DHT22;2549;52.128;21.068;2022-08-07T15:41:24;23.30;74.40
5061;DHT22;2549;52.128;21.068;2022-08-07T15:44:13;23.30;75.40
5061;DHT22;2549;52.128;21.068;2022-08-07T15:46:43;23.30;75.40
5061;DHT22;2549;52.128;21.068;2022-08-07T15:49:32;23.20;76.20
5061;DHT22;2549;52.128;21.068;2022-08-07T15:52:23;23.20;75.60
5061;DHT22;2549;52.128;21.068;2022-08-07T15:55:01;23.20;76.40
5061;DHT22;2549;52.128;21.068;2022-08-07T15:57:31;23.20;74.00
5061;DHT22;2549;52.128;21.068;2022-08-07T16:00:15;23.20;74.90
5061;DHT22;2549;52.128;21.068;2022-08-07T16:03:22;23.20;75.70
5061;DHT22;2549;52.128;21.068;2022-08-07T16:06:08;23.20;75.30
5061;DHT22;2549;52.128;21.068;2022-08-07T16:08:40;23.20;75.20
5061;DHT22;2549;52.128;21.068;2022-08-07T16:11:34;23.20;76.80
5061;DHT22;2549;52.128;21.068;2022-08-07T16:14:15;23.20;74.60
5061;DHT22;2549;52.128;21.068;2022-08-07T16:25:40;23.20;76.60
5061;DHT22;2549;52.128;21.068;2022-08-07T16:34:46;23.30;75.20
5061;DHT22;2549;52.128;21.068;2022-08-07T16:37:26;23.30;76.40
5061;DHT22;2549;52.128;21.068;2022-08-07T16:40:45;23.30;75.90
5061;DHT22;2549;52.128;21.068;2022-08-07T16:43:39;23.30;77.10
5061;DHT22;2549;52.128;21.068;2022-08-07T16:47:09;23.30;78.10
5061;DHT22;2549;52.128;21.068;2022-08-07T16:50:23;23.30;78.10
5061;DHT22;2549;52.128;21.068;2022-08-07T16:56:18;23.20;78.70
5061;DHT22;2549;52.128;21.068;2022-08-07T16:58:53;23.20;79.00
5061;DHT22;2549;52.128;21.068;2022-08-07T17:11:32;23.10;79.20
5061;DHT22;2549;52.128;21.068;2022-08-07T17:20:30;23.10;81.60
5061;DHT22;2549;52.128;21.068;2022-08-07T17:23:26;23.10;81.90
5061;DHT22;2549;52.128;21.068;2022-08-07T17:26:23;23.00;79.70
5061;DHT22;2549;52.128;21.068;2022-08-07T17:32:54;23.00;83.60
5061;DHT22;2549;52.128;21.068;2022-08-07T17:35:59;23.00;83.40
5061;DHT22;2549;52.128;21.068;2022-08-07T17:38:31;23.00;85.80
5061;DHT22;2549;52.128;21.068;2022-08-07T17:47:57;23.00;90.00
5061;DHT22;2549;52.128;21.068;2022-08-07T17:50:28;22.90;90.00
5061;DHT22;2549;52.128;21.068;2022-08-07T17:53:12;22.90;90.40
5061;DHT22;2549;52.128;21.068;2022-08-07T17:56:08;22.80;90.60
5061;DHT22;2549;52.128;21.068;2022-08-07T18:01:26;22.80;90.90
5061;DHT22;2549;52.128;21.068;2022-08-07T18:13:03;22.50;91.60
5061;DHT22;2549;52.128;21.068;2022-08-07T18:15:54;22.40;91.70
5061;DHT22;2549;52.128;21.068;2022-08-07T18:18:30;22.40;91.90
5061;DHT22;2549;52.128;21.068;2022-08-07T18:21:27;22.40;91.90
5061;DHT22;2549;52.128;21.068;2022-08-07T18:24:34;22.40;91.90
5061;DHT22;2549;52.128;21.068;2022-08-07T18:30:09;22.30;92.30
5061;DHT22;2549;52.128;21.068;2022-08-07T18:36:21;22.20;92.50
5061;DHT22;2549;52.128;21.068;2022-08-07T18:47:54;22.00;92.50
5061;DHT22;2549;52.128;21.068;2022-08-07T19:03:19;21.70;92.70
5061;DHT22;2549;52.128;21.068;2022-08-07T19:06:06;21.60;92.70
5061;DHT22;2549;52.128;21.068;2022-08-07T19:11:14;21.60;92.80
5061;DHT22;2549;52.128;21.068;2022-08-07T19:17:21;21.50;92.60
5061;DHT22;2549;52.128;21.068;2022-08-07T19:20:18;21.40;92.80
5061;DHT22;2549;52.128;21.068;2022-08-07T19:23:25;21.50;92.90
5061;DHT22;2549;52.128;21.068;2022-08-07T19:26:14;21.40;92.80
5061;DHT22;2549;52.128;21.068;2022-08-07T19:29:00;21.40;93.00
5061;DHT22;2549;52.128;21.068;2022-08-07T19:31:51;21.30;93.10
5061;DHT22;2549;52.128;21.068;2022-08-07T19:34:38;21.30;92.90
5061;DHT22;2549;52.128;21.068;2022-08-07T19:37:13;21.30;92.90
5061;DHT22;2549;52.128;21.068;2022-08-07T19:39:46;21.30;93.10
5061;DHT22;2549;52.128;21.068;2022-08-07T19:42:29;21.20;93.20
5061;DHT22;2549;52.128;21.068;2022-08-07T19:45:02;21.20;93.30
5061;DHT22;2549;52.128;21.068;2022-08-07T19:47:37;21.10;93.10
5061;DHT22;2549;52.128;21.068;2022-08-07T19:50:09;21.10;93.00
5061;DHT22;2549;52.128;21.068;2022-08-07T19:52:56;21.10;92.80
5061;DHT22;2549;52.128;21.068;2022-08-07T19:55:27;21.10;93.10
5061;DHT22;2549;52.128;21.068;2022-08-07T19:58:15;21.10;93.10
5061;DHT22;2549;52.128;21.068;2022-08-07T20:00:56;21.00;93.00
5061;DHT22;2549;52.128;21.068;2022-08-07T20:03:27;21.00;92.90
5061;DHT22;2549;52.128;21.068;2022-08-07T20:06:02;20.90;92.80
5061;DHT22;2549;52.128;21.068;2022-08-07T20:08:37;20.90;92.90
5061;DHT22;2549;52.128;21.068;2022-08-07T20:11:16;21.00;93.20
5061;DHT22;2549;52.128;21.068;2022-08-07T20:14:05;20.90;93.30
5061;DHT22;2549;52.128;21.068;2022-08-07T20:16:47;20.90;93.50
5061;DHT22;2549;52.128;21.068;2022-08-07T20:19:20;20.80;93.60
5061;DHT22;2549;52.128;21.068;2022-08-07T20:21:55;20.80;93.60
5061;DHT22;2549;52.128;21.068;2022-08-07T20:24:28;20.70;93.70
5061;DHT22;2549;52.128;21.068;2022-08-07T20:27:01;20.70;93.60
5061;DHT22;2549;52.128;21.068;2022-08-07T20:29:33;20.70;93.60
5061;DHT22;2549;52.128;21.068;2022-08-07T20:32:25;20.70;93.50
5061;DHT22;2549;52.128;21.068;2022-08-07T20:35:14;20.70;93.70
5061;DHT22;2549;52.128;21.068;2022-08-07T20:37:50;20.70;93.70
5061;DHT22;2549;52.128;21.068;2022-08-07T20:40:30;20.60;93.80
5061;DHT22;2549;52.128;21.068;2022-08-07T20:43:03;20.60;94.00
5061;DHT22;2549;52.128;21.068;2022-08-07T20:45:51;20.60;93.90
5061;DHT22;2549;52.128;21.068;2022-08-07T20:48:40;20.50;93.90